« Back
NWS Peachtree City, Ga » Text Product » ATL Terminal Aerodrome Forecast


Printer-friendly Version
Current Version              Previous Versions:   1  2  3  4  5  6  7  8  9  

Terminal Aerodrome Forecast

546
FTUS42 KFFC 301500 AAB
TAFATL
TAF AMD
KATL 301552Z 3016/3118 06008KT P6SM FEW030
     FM301800 03006KT P6SM SCT030 SCT250
     FM310300 03005KT P6SM FEW250
     FM310900 07005KT P6SM BKN150=

USA.gov is the U.S. government's official web portal to all federal, state and local government web resources and services.